sensor_id;sensor_type;location;lat;lon;timestamp;pressure;altitude;pressure_sealevel;temperature
8362;BMP180;4218;48.326;14.304;2023-03-23T00:00:46;97995.00;;;6.90
8362;BMP180;4218;48.326;14.304;2023-03-23T00:03:11;97985.00;;;6.90
8362;BMP180;4218;48.326;14.304;2023-03-23T00:05:38;97998.00;;;6.90
8362;BMP180;4218;48.326;14.304;2023-03-23T00:08:07;98002.00;;;7.00
8362;BMP180;4218;48.326;14.304;2023-03-23T00:10:35;98001.00;;;7.10
8362;BMP180;4218;48.326;14.304;2023-03-23T00:13:00;97995.00;;;7.00
8362;BMP180;4218;48.326;14.304;2023-03-23T00:15:30;97998.00;;;6.90
8362;BMP180;4218;48.326;14.304;2023-03-23T00:17:59;97992.00;;;6.80
8362;BMP180;4218;48.326;14.304;2023-03-23T00:20:30;98003.00;;;6.70
8362;BMP180;4218;48.326;14.304;2023-03-23T00:23:05;97991.00;;;6.90
8362;BMP180;4218;48.326;14.304;2023-03-23T00:25:32;97988.00;;;6.90
8362;BMP180;4218;48.326;14.304;2023-03-23T00:27:57;97990.00;;;6.80
8362;BMP180;4218;48.326;14.304;2023-03-23T00:30:22;97986.00;;;6.90
8362;BMP180;4218;48.326;14.304;2023-03-23T00:32:48;97975.00;;;6.70
8362;BMP180;4218;48.326;14.304;2023-03-23T00:35:13;97986.00;;;6.60
8362;BMP180;4218;48.326;14.304;2023-03-23T00:37:39;97983.00;;;6.60
8362;BMP180;4218;48.326;14.304;2023-03-23T00:40:04;97978.00;;;6.60
8362;BMP180;4218;48.326;14.304;2023-03-23T00:42:34;97975.00;;;6.70
8362;BMP180;4218;48.326;14.304;2023-03-23T00:45:03;97983.00;;;6.80
8362;BMP180;4218;48.326;14.304;2023-03-23T00:47:36;97978.00;;;6.80
8362;BMP180;4218;48.326;14.304;2023-03-23T00:50:03;97969.00;;;6.60
8362;BMP180;4218;48.326;14.304;2023-03-23T00:52:30;97963.00;;;6.80
8362;BMP180;4218;48.326;14.304;2023-03-23T00:54:55;97969.00;;;6.60
8362;BMP180;4218;48.326;14.304;2023-03-23T00:57:21;97954.00;;;6.50
8362;BMP180;4218;48.326;14.304;2023-03-23T00:59:51;97959.00;;;6.40
8362;BMP180;4218;48.326;14.304;2023-03-23T01:02:16;97957.00;;;6.50
8362;BMP180;4218;48.326;14.304;2023-03-23T01:04:43;97955.00;;;6.40
8362;BMP180;4218;48.326;14.304;2023-03-23T01:07:12;97952.00;;;6.40
8362;BMP180;4218;48.326;14.304;2023-03-23T01:09:38;97952.00;;;6.30
8362;BMP180;4218;48.326;14.304;2023-03-23T01:12:05;97950.00;;;6.30
8362;BMP180;4218;48.326;14.304;2023-03-23T01:14:31;97946.00;;;6.20
8362;BMP180;4218;48.326;14.304;2023-03-23T01:16:56;97953.00;;;6.10
8362;BMP180;4218;48.326;14.304;2023-03-23T01:19:22;97954.00;;;6.10
8362;BMP180;4218;48.326;14.304;2023-03-23T01:21:47;97949.00;;;6.10
8362;BMP180;4218;48.326;14.304;2023-03-23T01:24:13;97960.00;;;6.10
8362;BMP180;4218;48.326;14.304;2023-03-23T01:26:38;97951.00;;;5.90
8362;BMP180;4218;48.326;14.304;2023-03-23T01:29:03;97947.00;;;5.90
8362;BMP180;4218;48.326;14.304;2023-03-23T01:31:29;97948.00;;;5.90
8362;BMP180;4218;48.326;14.304;2023-03-23T01:33:55;97958.00;;;5.90
8362;BMP180;4218;48.326;14.304;2023-03-23T01:36:24;97957.00;;;6.00
8362;BMP180;4218;48.326;14.304;2023-03-23T01:38:51;97950.00;;;6.10
8362;BMP180;4218;48.326;14.304;2023-03-23T01:41:18;97947.00;;;6.20
8362;BMP180;4218;48.326;14.304;2023-03-23T01:43:59;97942.00;;;6.10
8362;BMP180;4218;48.326;14.304;2023-03-23T01:46:27;97943.00;;;6.00
8362;BMP180;4218;48.326;14.304;2023-03-23T01:48:56;97946.00;;;6.00
8362;BMP180;4218;48.326;14.304;2023-03-23T01:51:24;97931.00;;;6.10
8362;BMP180;4218;48.326;14.304;2023-03-23T01:53:54;97929.00;;;6.10
8362;BMP180;4218;48.326;14.304;2023-03-23T01:56:24;97938.00;;;6.10
8362;BMP180;4218;48.326;14.304;2023-03-23T01:58:53;97939.00;;;6.10
8362;BMP180;4218;48.326;14.304;2023-03-23T02:01:19;97930.00;;;6.10
8362;BMP180;4218;48.326;14.304;2023-03-23T02:03:47;97923.00;;;6.00
8362;BMP180;4218;48.326;14.304;2023-03-23T02:06:13;97928.00;;;5.90
8362;BMP180;4218;48.326;14.304;2023-03-23T02:08:40;97937.00;;;5.70
8362;BMP180;4218;48.326;14.304;2023-03-23T02:11:16;97943.00;;;5.60
8362;BMP180;4218;48.326;14.304;2023-03-23T02:13:42;97933.00;;;5.60
8362;BMP180;4218;48.326;14.304;2023-03-23T02:16:40;97928.00;;;5.80
8362;BMP180;4218;48.326;14.304;2023-03-23T02:19:24;97932.00;;;5.80
8362;BMP180;4218;48.326;14.304;2023-03-23T02:27:20;97932.00;;;6.00
8362;BMP180;4218;48.326;14.304;2023-03-23T02:30:14;97926.00;;;5.90
8362;BMP180;4218;48.326;14.304;2023-03-23T02:35:50;97925.00;;;5.80
8362;BMP180;4218;48.326;14.304;2023-03-23T02:38:21;97928.00;;;5.70
8362;BMP180;4218;48.326;14.304;2023-03-23T02:40:50;97922.00;;;5.60
8362;BMP180;4218;48.326;14.304;2023-03-23T02:43:22;97925.00;;;5.60
8362;BMP180;4218;48.326;14.304;2023-03-23T02:45:50;97921.00;;;5.70
8362;BMP180;4218;48.326;14.304;2023-03-23T02:48:19;97925.00;;;5.80
8362;BMP180;4218;48.326;14.304;2023-03-23T02:50:47;97929.00;;;6.00
8362;BMP180;4218;48.326;14.304;2023-03-23T02:53:18;97928.00;;;5.90
8362;BMP180;4218;48.326;14.304;2023-03-23T02:55:46;97924.00;;;5.90
8362;BMP180;4218;48.326;14.304;2023-03-23T02:58:13;97935.00;;;5.80
8362;BMP180;4218;48.326;14.304;2023-03-23T03:00:39;97935.00;;;5.80
8362;BMP180;4218;48.326;14.304;2023-03-23T03:03:09;97929.00;;;5.70
8362;BMP180;4218;48.326;14.304;2023-03-23T03:08:54;97929.00;;;5.60
8362;BMP180;4218;48.326;14.304;2023-03-23T03:11:22;97920.00;;;5.40
8362;BMP180;4218;48.326;14.304;2023-03-23T03:16:47;97918.00;;;5.40
8362;BMP180;4218;48.326;14.304;2023-03-23T03:19:17;97925.00;;;5.40
8362;BMP180;4218;48.326;14.304;2023-03-23T03:21:46;97916.00;;;5.40
8362;BMP180;4218;48.326;14.304;2023-03-23T03:24:17;97916.00;;;5.60
8362;BMP180;4218;48.326;14.304;2023-03-23T03:26:46;97925.00;;;5.50
8362;BMP180;4218;48.326;14.304;2023-03-23T03:29:14;97915.00;;;5.50
8362;BMP180;4218;48.326;14.304;2023-03-23T03:31:44;97915.00;;;5.50
8362;BMP180;4218;48.326;14.304;2023-03-23T03:34:14;97921.00;;;5.50
8362;BMP180;4218;48.326;14.304;2023-03-23T03:36:43;97917.00;;;5.50
8362;BMP180;4218;48.326;14.304;2023-03-23T03:39:11;97921.00;;;5.50
8362;BMP180;4218;48.326;14.304;2023-03-23T03:41:38;97913.00;;;5.70
8362;BMP180;4218;48.326;14.304;2023-03-23T03:44:04;97931.00;;;5.70
8362;BMP180;4218;48.326;14.304;2023-03-23T03:46:32;97936.00;;;5.60
8362;BMP180;4218;48.326;14.304;2023-03-23T03:48:59;97932.00;;;5.60
8362;BMP180;4218;48.326;14.304;2023-03-23T03:51:26;97941.00;;;5.50
8362;BMP180;4218;48.326;14.304;2023-03-23T03:53:52;97935.00;;;5.50
8362;BMP180;4218;48.326;14.304;2023-03-23T03:56:18;97928.00;;;5.50
8362;BMP180;4218;48.326;14.304;2023-03-23T03:58:45;97945.00;;;5.50
8362;BMP180;4218;48.326;14.304;2023-03-23T04:01:11;97942.00;;;5.60
8362;BMP180;4218;48.326;14.304;2023-03-23T04:03:37;97944.00;;;5.60
8362;BMP180;4218;48.326;14.304;2023-03-23T04:06:03;97948.00;;;5.60
8362;BMP180;4218;48.326;14.304;2023-03-23T04:08:29;97951.00;;;5.70
8362;BMP180;4218;48.326;14.304;2023-03-23T04:10:54;97946.00;;;5.60
8362;BMP180;4218;48.326;14.304;2023-03-23T04:13:20;97947.00;;;5.70
8362;BMP180;4218;48.326;14.304;2023-03-23T04:15:47;97947.00;;;6.00
8362;BMP180;4218;48.326;14.304;2023-03-23T04:18:13;97947.00;;;6.00
8362;BMP180;4218;48.326;14.304;2023-03-23T04:20:41;97948.00;;;5.90
8362;BMP180;4218;48.326;14.304;2023-03-23T04:23:06;97958.00;;;5.90
8362;BMP180;4218;48.326;14.304;2023-03-23T04:25:32;97962.00;;;5.90
8362;BMP180;4218;48.326;14.304;2023-03-23T04:27:58;97943.00;;;5.90
8362;BMP180;4218;48.326;14.304;2023-03-23T04:30:27;97956.00;;;5.90
8362;BMP180;4218;48.326;14.304;2023-03-23T04:32:54;97943.00;;;5.80
8362;BMP180;4218;48.326;14.304;2023-03-23T04:35:23;97936.00;;;5.90
8362;BMP180;4218;48.326;14.304;2023-03-23T04:37:51;97951.00;;;5.80
8362;BMP180;4218;48.326;14.304;2023-03-23T04:40:18;97951.00;;;5.80
8362;BMP180;4218;48.326;14.304;2023-03-23T04:42:44;97950.00;;;5.80
8362;BMP180;4218;48.326;14.304;2023-03-23T04:45:15;97956.00;;;5.70
8362;BMP180;4218;48.326;14.304;2023-03-23T04:47:41;97944.00;;;5.70
8362;BMP180;4218;48.326;14.304;2023-03-23T04:50:14;97950.00;;;5.70
8362;BMP180;4218;48.326;14.304;2023-03-23T04:52:39;97953.00;;;5.60
8362;BMP180;4218;48.326;14.304;2023-03-23T04:55:11;97950.00;;;5.50
8362;BMP180;4218;48.326;14.304;2023-03-23T04:57:37;97946.00;;;5.60
8362;BMP180;4218;48.326;14.304;2023-03-23T05:00:04;97955.00;;;5.60
8362;BMP180;4218;48.326;14.304;2023-03-23T05:02:40;97963.00;;;5.60
8362;BMP180;4218;48.326;14.304;2023-03-23T05:05:07;97966.00;;;5.70
8362;BMP180;4218;48.326;14.304;2023-03-23T05:07:33;97966.00;;;5.70
8362;BMP180;4218;48.326;14.304;2023-03-23T05:09:58;97962.00;;;5.80
8362;BMP180;4218;48.326;14.304;2023-03-23T05:12:24;97966.00;;;5.90
8362;BMP180;4218;48.326;14.304;2023-03-23T05:14:49;97972.00;;;6.00
8362;BMP180;4218;48.326;14.304;2023-03-23T05:17:15;97972.00;;;6.00
8362;BMP180;4218;48.326;14.304;2023-03-23T05:19:43;97977.00;;;6.00
8362;BMP180;4218;48.326;14.304;2023-03-23T05:22:10;97977.00;;;6.00
8362;BMP180;4218;48.326;14.304;2023-03-23T05:24:37;97986.00;;;6.00
8362;BMP180;4218;48.326;14.304;2023-03-23T05:27:03;97988.00;;;6.10
8362;BMP180;4218;48.326;14.304;2023-03-23T05:29:29;97996.00;;;6.10
8362;BMP180;4218;48.326;14.304;2023-03-23T05:31:56;97986.00;;;6.10
8362;BMP180;4218;48.326;14.304;2023-03-23T05:34:25;97990.00;;;6.20
8362;BMP180;4218;48.326;14.304;2023-03-23T05:36:51;97996.00;;;6.20
8362;BMP180;4218;48.326;14.304;2023-03-23T05:39:18;97987.00;;;6.20
8362;BMP180;4218;48.326;14.304;2023-03-23T05:41:44;97994.00;;;6.30
8362;BMP180;4218;48.326;14.304;2023-03-23T05:44:09;97988.00;;;6.30
8362;BMP180;4218;48.326;14.304;2023-03-23T05:46:35;97999.00;;;6.40
8362;BMP180;4218;48.326;14.304;2023-03-23T05:49:00;97991.00;;;6.40
8362;BMP180;4218;48.326;14.304;2023-03-23T05:51:27;97998.00;;;6.40
8362;BMP180;4218;48.326;14.304;2023-03-23T05:53:52;97996.00;;;6.40
8362;BMP180;4218;48.326;14.304;2023-03-23T05:56:18;97993.00;;;6.50
8362;BMP180;4218;48.326;14.304;2023-03-23T05:58:43;98006.00;;;6.50
8362;BMP180;4218;48.326;14.304;2023-03-23T06:01:09;98014.00;;;6.50
8362;BMP180;4218;48.326;14.304;2023-03-23T06:03:34;98015.00;;;6.60
8362;BMP180;4218;48.326;14.304;2023-03-23T06:06:03;98011.00;;;6.70
8362;BMP180;4218;48.326;14.304;2023-03-23T06:08:29;98016.00;;;6.80
8362;BMP180;4218;48.326;14.304;2023-03-23T06:10:54;98026.00;;;6.80
8362;BMP180;4218;48.326;14.304;2023-03-23T06:13:21;98029.00;;;7.00
8362;BMP180;4218;48.326;14.304;2023-03-23T06:15:46;98029.00;;;7.10
8362;BMP180;4218;48.326;14.304;2023-03-23T06:18:13;98028.00;;;7.20
8362;BMP180;4218;48.326;14.304;2023-03-23T06:20:39;98022.00;;;7.20
8362;BMP180;4218;48.326;14.304;2023-03-23T06:23:04;98028.00;;;7.20
8362;BMP180;4218;48.326;14.304;2023-03-23T06:25:30;98025.00;;;7.40
8362;BMP180;4218;48.326;14.304;2023-03-23T06:27:56;98023.00;;;7.50
8362;BMP180;4218;48.326;14.304;2023-03-23T06:30:21;98036.00;;;7.60
8362;BMP180;4218;48.326;14.304;2023-03-23T06:32:47;98038.00;;;7.70
8362;BMP180;4218;48.326;14.304;2023-03-23T06:35:14;98034.00;;;7.80
8362;BMP180;4218;48.326;14.304;2023-03-23T06:37:40;98031.00;;;7.90
8362;BMP180;4218;48.326;14.304;2023-03-23T06:40:06;98035.00;;;8.00
8362;BMP180;4218;48.326;14.304;2023-03-23T06:42:32;98030.00;;;8.10
8362;BMP180;4218;48.326;14.304;2023-03-23T06:44:59;98029.00;;;8.30
8362;BMP180;4218;48.326;14.304;2023-03-23T06:47:26;98037.00;;;8.30
8362;BMP180;4218;48.326;14.304;2023-03-23T06:49:52;98041.00;;;8.30
8362;BMP180;4218;48.326;14.304;2023-03-23T06:52:17;98043.00;;;8.40
8362;BMP180;4218;48.326;14.304;2023-03-23T06:54:43;98044.00;;;8.50
8362;BMP180;4218;48.326;14.304;2023-03-23T06:57:09;98038.00;;;8.50
8362;BMP180;4218;48.326;14.304;2023-03-23T06:59:34;98049.00;;;8.50
8362;BMP180;4218;48.326;14.304;2023-03-23T07:02:00;98043.00;;;8.50
8362;BMP180;4218;48.326;14.304;2023-03-23T07:04:25;98052.00;;;8.60
8362;BMP180;4218;48.326;14.304;2023-03-23T07:06:51;98055.00;;;8.60
8362;BMP180;4218;48.326;14.304;2023-03-23T07:09:16;98047.00;;;8.60
8362;BMP180;4218;48.326;14.304;2023-03-23T07:11:42;98048.00;;;8.70
8362;BMP180;4218;48.326;14.304;2023-03-23T07:14:08;98049.00;;;8.80
8362;BMP180;4218;48.326;14.304;2023-03-23T07:16:34;98043.00;;;8.80
8362;BMP180;4218;48.326;14.304;2023-03-23T07:18:59;98058.00;;;9.00
8362;BMP180;4218;48.326;14.304;2023-03-23T07:21:25;98052.00;;;9.20
8362;BMP180;4218;48.326;14.304;2023-03-23T07:23:51;98065.00;;;9.40
8362;BMP180;4218;48.326;14.304;2023-03-23T07:26:16;98067.00;;;10.10
8362;BMP180;4218;48.326;14.304;2023-03-23T07:28:42;98067.00;;;10.90
8362;BMP180;4218;48.326;14.304;2023-03-23T07:31:07;98066.00;;;11.80
8362;BMP180;4218;48.326;14.304;2023-03-23T07:33:34;98068.00;;;12.70
8362;BMP180;4218;48.326;14.304;2023-03-23T07:36:01;98068.00;;;14.60
8362;BMP180;4218;48.326;14.304;2023-03-23T07:38:28;98070.00;;;15.80
8362;BMP180;4218;48.326;14.304;2023-03-23T07:40:53;98070.00;;;15.70
8362;BMP180;4218;48.326;14.304;2023-03-23T07:43:19;98068.00;;;15.30
8362;BMP180;4218;48.326;14.304;2023-03-23T07:45:46;98070.00;;;14.90
8362;BMP180;4218;48.326;14.304;2023-03-23T07:48:11;98077.00;;;14.70
8362;BMP180;4218;48.326;14.304;2023-03-23T07:50:37;98072.00;;;15.00
8362;BMP180;4218;48.326;14.304;2023-03-23T07:53:03;98069.00;;;14.80
8362;BMP180;4218;48.326;14.304;2023-03-23T07:55:28;98070.00;;;14.70
8362;BMP180;4218;48.326;14.304;2023-03-23T07:57:54;98072.00;;;14.80
8362;BMP180;4218;48.326;14.304;2023-03-23T08:00:21;98068.00;;;14.50
8362;BMP180;4218;48.326;14.304;2023-03-23T08:02:56;98071.00;;;14.60
8362;BMP180;4218;48.326;14.304;2023-03-23T08:05:26;98068.00;;;14.30
8362;BMP180;4218;48.326;14.304;2023-03-23T08:07:54;98070.00;;;13.30
8362;BMP180;4218;48.326;14.304;2023-03-23T08:10:24;98082.00;;;13.20
8362;BMP180;4218;48.326;14.304;2023-03-23T08:12:55;98074.00;;;12.80
8362;BMP180;4218;48.326;14.304;2023-03-23T08:15:22;98079.00;;;12.60
8362;BMP180;4218;48.326;14.304;2023-03-23T08:17:48;98076.00;;;12.30
8362;BMP180;4218;48.326;14.304;2023-03-23T08:20:14;98078.00;;;12.10
8362;BMP180;4218;48.326;14.304;2023-03-23T08:22:40;98076.00;;;11.80
8362;BMP180;4218;48.326;14.304;2023-03-23T08:25:07;98077.00;;;12.00
8362;BMP180;4218;48.326;14.304;2023-03-23T08:27:34;98080.00;;;11.60
8362;BMP180;4218;48.326;14.304;2023-03-23T08:30:07;98078.00;;;11.70
8362;BMP180;4218;48.326;14.304;2023-03-23T08:32:37;98073.00;;;11.50
8362;BMP180;4218;48.326;14.304;2023-03-23T08:35:05;98079.00;;;11.70
8362;BMP180;4218;48.326;14.304;2023-03-23T08:37:30;98076.00;;;11.90
8362;BMP180;4218;48.326;14.304;2023-03-23T08:39:56;98069.00;;;12.20
8362;BMP180;4218;48.326;14.304;2023-03-23T08:42:25;98064.00;;;12.50
8362;BMP180;4218;48.326;14.304;2023-03-23T08:44:51;98060.00;;;12.90
8362;BMP180;4218;48.326;14.304;2023-03-23T08:47:17;98062.00;;;13.10
8362;BMP180;4218;48.326;14.304;2023-03-23T08:49:43;98064.00;;;13.10
8362;BMP180;4218;48.326;14.304;2023-03-23T08:52:10;98047.00;;;13.20
8362;BMP180;4218;48.326;14.304;2023-03-23T08:54:36;98058.00;;;13.30
8362;BMP180;4218;48.326;14.304;2023-03-23T08:57:02;98041.00;;;13.40
8362;BMP180;4218;48.326;14.304;2023-03-23T08:59:30;98035.00;;;13.40
8362;BMP180;4218;48.326;14.304;2023-03-23T09:01:56;98032.00;;;13.90
8362;BMP180;4218;48.326;14.304;2023-03-23T09:04:22;98031.00;;;14.00
8362;BMP180;4218;48.326;14.304;2023-03-23T09:06:47;98029.00;;;14.10
8362;BMP180;4218;48.326;14.304;2023-03-23T09:09:13;98035.00;;;14.30
8362;BMP180;4218;48.326;14.304;2023-03-23T09:11:39;98029.00;;;14.50
8362;BMP180;4218;48.326;14.304;2023-03-23T09:14:07;98031.00;;;14.70
8362;BMP180;4218;48.326;14.304;2023-03-23T09:16:36;98029.00;;;14.80
8362;BMP180;4218;48.326;14.304;2023-03-23T09:19:01;98031.00;;;14.70
8362;BMP180;4218;48.326;14.304;2023-03-23T09:21:29;98030.00;;;14.20
8362;BMP180;4218;48.326;14.304;2023-03-23T09:24:00;98032.00;;;14.30
8362;BMP180;4218;48.326;14.304;2023-03-23T09:26:27;98032.00;;;14.10
8362;BMP180;4218;48.326;14.304;2023-03-23T09:28:56;98034.00;;;14.10
8362;BMP180;4218;48.326;14.304;2023-03-23T09:31:24;98034.00;;;14.40
8362;BMP180;4218;48.326;14.304;2023-03-23T09:33:54;98030.00;;;14.70
8362;BMP180;4218;48.326;14.304;2023-03-23T09:36:22;98013.00;;;15.00
8362;BMP180;4218;48.326;14.304;2023-03-23T09:38:49;98027.00;;;15.20
8362;BMP180;4218;48.326;14.304;2023-03-23T09:50:11;98015.00;;;16.60
8362;BMP180;4218;48.326;14.304;2023-03-23T09:55:38;98006.00;;;16.80
8362;BMP180;4218;48.326;14.304;2023-03-23T10:01:06;98009.00;;;18.80
8362;BMP180;4218;48.326;14.304;2023-03-23T10:03:42;98008.00;;;19.90
8362;BMP180;4218;48.326;14.304;2023-03-23T10:06:11;98005.00;;;18.80
8362;BMP180;4218;48.326;14.304;2023-03-23T10:08:41;98009.00;;;18.60
8362;BMP180;4218;48.326;14.304;2023-03-23T10:11:27;98011.00;;;18.60
8362;BMP180;4218;48.326;14.304;2023-03-23T10:14:09;98021.00;;;18.00
8362;BMP180;4218;48.326;14.304;2023-03-23T10:16:54;98016.00;;;17.80
8362;BMP180;4218;48.326;14.304;2023-03-23T10:22:12;98008.00;;;17.30
8362;BMP180;4218;48.326;14.304;2023-03-23T10:24:49;98014.00;;;17.30
8362;BMP180;4218;48.326;14.304;2023-03-23T10:27:50;98010.00;;;16.70
8362;BMP180;4218;48.326;14.304;2023-03-23T10:30:51;98006.00;;;16.70
8362;BMP180;4218;48.326;14.304;2023-03-23T10:33:39;98011.00;;;17.10
8362;BMP180;4218;48.326;14.304;2023-03-23T10:38:56;98014.00;;;16.50
8362;BMP180;4218;48.326;14.304;2023-03-23T10:41:23;98004.00;;;16.00
8362;BMP180;4218;48.326;14.304;2023-03-23T10:43:49;98005.00;;;16.20
8362;BMP180;4218;48.326;14.304;2023-03-23T10:48:50;98002.00;;;16.40
8362;BMP180;4218;48.326;14.304;2023-03-23T10:51:19;98007.00;;;16.60
8362;BMP180;4218;48.326;14.304;2023-03-23T10:53:51;98010.00;;;17.00
8362;BMP180;4218;48.326;14.304;2023-03-23T10:56:25;97989.00;;;17.30
8362;BMP180;4218;48.326;14.304;2023-03-23T10:58:51;97992.00;;;17.20
8362;BMP180;4218;48.326;14.304;2023-03-23T11:01:30;97998.00;;;17.30
8362;BMP180;4218;48.326;14.304;2023-03-23T11:03:56;97987.00;;;16.90
8362;BMP180;4218;48.326;14.304;2023-03-23T11:06:29;97989.00;;;16.80
8362;BMP180;4218;48.326;14.304;2023-03-23T11:09:08;97986.00;;;17.00
8362;BMP180;4218;48.326;14.304;2023-03-23T11:11:41;97989.00;;;17.40
8362;BMP180;4218;48.326;14.304;2023-03-23T11:16:57;97983.00;;;17.90
8362;BMP180;4218;48.326;14.304;2023-03-23T11:19:28;97971.00;;;17.80
8362;BMP180;4218;48.326;14.304;2023-03-23T11:22:19;97973.00;;;17.80
8362;BMP180;4218;48.326;14.304;2023-03-23T11:24:47;97973.00;;;17.80
8362;BMP180;4218;48.326;14.304;2023-03-23T11:27:17;97961.00;;;17.90
8362;BMP180;4218;48.326;14.304;2023-03-23T11:29:55;97972.00;;;18.10
8362;BMP180;4218;48.326;14.304;2023-03-23T11:32:25;97979.00;;;18.20
8362;BMP180;4218;48.326;14.304;2023-03-23T11:35:00;97978.00;;;17.80
8362;BMP180;4218;48.326;14.304;2023-03-23T11:37:54;97975.00;;;18.00
8362;BMP180;4218;48.326;14.304;2023-03-23T11:40:22;97971.00;;;17.90
8362;BMP180;4218;48.326;14.304;2023-03-23T11:47:56;97959.00;;;17.80
8362;BMP180;4218;48.326;14.304;2023-03-23T11:50:29;97957.00;;;17.60
8362;BMP180;4218;48.326;14.304;2023-03-23T11:53:13;97947.00;;;17.60
8362;BMP180;4218;48.326;14.304;2023-03-23T11:58:15;97956.00;;;18.20
8362;BMP180;4218;48.326;14.304;2023-03-23T12:01:03;97948.00;;;18.20
8362;BMP180;4218;48.326;14.304;2023-03-23T12:20:29;97938.00;;;19.20
8362;BMP180;4218;48.326;14.304;2023-03-23T12:33:39;97929.00;;;19.30
8362;BMP180;4218;48.326;14.304;2023-03-23T12:41:38;97905.00;;;19.70
8362;BMP180;4218;48.326;14.304;2023-03-23T12:44:09;97917.00;;;19.80
8362;BMP180;4218;48.326;14.304;2023-03-23T12:49:25;97918.00;;;19.90
8362;BMP180;4218;48.326;14.304;2023-03-23T12:52:15;97914.00;;;19.50
8362;BMP180;4218;48.326;14.304;2023-03-23T12:57:56;97905.00;;;19.70
8362;BMP180;4218;48.326;14.304;2023-03-23T13:00:29;97901.00;;;19.80
8362;BMP180;4218;48.326;14.304;2023-03-23T13:05:42;97895.00;;;20.10
8362;BMP180;4218;48.326;14.304;2023-03-23T13:08:19;97897.00;;;20.10
8362;BMP180;4218;48.326;14.304;2023-03-23T13:10:49;97901.00;;;20.30
8362;BMP180;4218;48.326;14.304;2023-03-23T13:13:23;97896.00;;;20.40
8362;BMP180;4218;48.326;14.304;2023-03-23T13:21:26;97891.00;;;20.40
8362;BMP180;4218;48.326;14.304;2023-03-23T13:23:57;97894.00;;;20.30
8362;BMP180;4218;48.326;14.304;2023-03-23T13:26:23;97888.00;;;20.10
8362;BMP180;4218;48.326;14.304;2023-03-23T13:29:21;97891.00;;;20.30
8362;BMP180;4218;48.326;14.304;2023-03-23T13:31:50;97897.00;;;20.10
8362;BMP180;4218;48.326;14.304;2023-03-23T13:34:19;97897.00;;;20.10
8362;BMP180;4218;48.326;14.304;2023-03-23T13:37:06;97894.00;;;20.10
8362;BMP180;4218;48.326;14.304;2023-03-23T13:39:36;97888.00;;;20.00
8362;BMP180;4218;48.326;14.304;2023-03-23T13:49:52;97886.00;;;20.00
8362;BMP180;4218;48.326;14.304;2023-03-23T13:52:45;97889.00;;;19.80
8362;BMP180;4218;48.326;14.304;2023-03-23T14:05:36;97878.00;;;19.70
8362;BMP180;4218;48.326;14.304;2023-03-23T14:10:39;97876.00;;;19.90
8362;BMP180;4218;48.326;14.304;2023-03-23T14:19:00;97858.00;;;19.90
8362;BMP180;4218;48.326;14.304;2023-03-23T14:21:40;97867.00;;;19.90
8362;BMP180;4218;48.326;14.304;2023-03-23T14:24:10;97868.00;;;19.90
8362;BMP180;4218;48.326;14.304;2023-03-23T14:26:37;97857.00;;;20.00
8362;BMP180;4218;48.326;14.304;2023-03-23T14:29:03;97856.00;;;20.20
8362;BMP180;4218;48.326;14.304;2023-03-23T14:31:30;97854.00;;;20.00
8362;BMP180;4218;48.326;14.304;2023-03-23T14:34:02;97846.00;;;20.10
8362;BMP180;4218;48.326;14.304;2023-03-23T14:36:30;97856.00;;;20.20
8362;BMP180;4218;48.326;14.304;2023-03-23T14:39:20;97854.00;;;20.30
8362;BMP180;4218;48.326;14.304;2023-03-23T14:41:46;97855.00;;;20.30
8362;BMP180;4218;48.326;14.304;2023-03-23T14:44:22;97849.00;;;20.40
8362;BMP180;4218;48.326;14.304;2023-03-23T14:46:49;97846.00;;;20.30
8362;BMP180;4218;48.326;14.304;2023-03-23T14:49:16;97849.00;;;20.10
8362;BMP180;4218;48.326;14.304;2023-03-23T14:51:52;97844.00;;;20.20
8362;BMP180;4218;48.326;14.304;2023-03-23T14:54:25;97851.00;;;20.20
8362;BMP180;4218;48.326;14.304;2023-03-23T14:56:51;97854.00;;;20.10
8362;BMP180;4218;48.326;14.304;2023-03-23T14:59:17;97854.00;;;20.10
8362;BMP180;4218;48.326;14.304;2023-03-23T15:01:43;97851.00;;;20.00
8362;BMP180;4218;48.326;14.304;2023-03-23T15:04:14;97860.00;;;20.00
8362;BMP180;4218;48.326;14.304;2023-03-23T15:06:46;97864.00;;;20.00
8362;BMP180;4218;48.326;14.304;2023-03-23T15:09:17;97855.00;;;20.00
8362;BMP180;4218;48.326;14.304;2023-03-23T15:11:52;97862.00;;;19.80
8362;BMP180;4218;48.326;14.304;2023-03-23T15:14:27;97858.00;;;19.70
8362;BMP180;4218;48.326;14.304;2023-03-23T15:16:56;97849.00;;;19.90
8362;BMP180;4218;48.326;14.304;2023-03-23T15:19:25;97856.00;;;19.80
8362;BMP180;4218;48.326;14.304;2023-03-23T15:21:56;97844.00;;;19.80
8362;BMP180;4218;48.326;14.304;2023-03-23T15:24:38;97841.00;;;19.90
8362;BMP180;4218;48.326;14.304;2023-03-23T15:27:14;97847.00;;;19.80
8362;BMP180;4218;48.326;14.304;2023-03-23T15:29:54;97850.00;;;19.70
8362;BMP180;4218;48.326;14.304;2023-03-23T15:32:29;97849.00;;;19.60
8362;BMP180;4218;48.326;14.304;2023-03-23T15:34:55;97852.00;;;19.50
8362;BMP180;4218;48.326;14.304;2023-03-23T15:37:30;97867.00;;;19.40
8362;BMP180;4218;48.326;14.304;2023-03-23T15:39:57;97870.00;;;19.40
8362;BMP180;4218;48.326;14.304;2023-03-23T15:42:32;97866.00;;;19.50
8362;BMP180;4218;48.326;14.304;2023-03-23T15:47:46;97860.00;;;19.50
8362;BMP180;4218;48.326;14.304;2023-03-23T15:50:39;97857.00;;;19.70
8362;BMP180;4218;48.326;14.304;2023-03-23T15:53:35;97852.00;;;19.50
8362;BMP180;4218;48.326;14.304;2023-03-23T15:56:05;97858.00;;;19.60
8362;BMP180;4218;48.326;14.304;2023-03-23T15:58:32;97862.00;;;19.50
8362;BMP180;4218;48.326;14.304;2023-03-23T16:00:59;97858.00;;;19.40
8362;BMP180;4218;48.326;14.304;2023-03-23T16:03:31;97859.00;;;19.40
8362;BMP180;4218;48.326;14.304;2023-03-23T16:05:59;97855.00;;;19.40
8362;BMP180;4218;48.326;14.304;2023-03-23T16:08:27;97859.00;;;19.40
8362;BMP180;4218;48.326;14.304;2023-03-23T16:10:53;97866.00;;;19.40
8362;BMP180;4218;48.326;14.304;2023-03-23T16:13:18;97867.00;;;19.20
8362;BMP180;4218;48.326;14.304;2023-03-23T16:15:46;97869.00;;;19.00
8362;BMP180;4218;48.326;14.304;2023-03-23T16:18:21;97873.00;;;18.90
8362;BMP180;4218;48.326;14.304;2023-03-23T16:20:47;97872.00;;;18.80
8362;BMP180;4218;48.326;14.304;2023-03-23T16:23:16;97881.00;;;18.70
8362;BMP180;4218;48.326;14.304;2023-03-23T16:25:42;97880.00;;;18.60
8362;BMP180;4218;48.326;14.304;2023-03-23T16:28:13;97881.00;;;18.50
8362;BMP180;4218;48.326;14.304;2023-03-23T16:30:41;97872.00;;;18.40
8362;BMP180;4218;48.326;14.304;2023-03-23T16:33:08;97875.00;;;18.30
8362;BMP180;4218;48.326;14.304;2023-03-23T16:35:37;97875.00;;;18.20
8362;BMP180;4218;48.326;14.304;2023-03-23T16:38:16;97886.00;;;18.10
8362;BMP180;4218;48.326;14.304;2023-03-23T16:45:57;97886.00;;;17.80
8362;BMP180;4218;48.326;14.304;2023-03-23T16:48:23;97885.00;;;17.60
8362;BMP180;4218;48.326;14.304;2023-03-23T16:50:50;97880.00;;;17.60